METAR Data
IDs: Format: Raw Decoded Include TAF

Data at: 1639 UTC 21 Sep 2018

KAMN 211619Z AUTO 24015G26KT 10SM SCT031 SCT047 SCT055 24/19 A2977 RMK AO2 T02400187
KAMN 211559Z AUTO 25015G26KT 10SM SCT030 BKN047 OVC050 23/19 A2977 RMK AO2 T02320186
KAMN 211539Z AUTO 26015G24KT 10SM SCT026 BKN038 OVC070 23/20 A2976 RMK AO2 T02320198
KAMN 211519Z AUTO 24011G18KT 10SM BKN018 BKN035 OVC047 23/22 A2975 RMK AO2 T02290216
KAMN 211458Z AUTO 22013G25KT 7SM -RA BKN018 OVC029 23/22 A2974 RMK AO2 T02310215
KAMN 211438Z AUTO 22013G21KT 200V260 10SM OVC016 23/22 A2974 RMK AO2 T02330215
KAMN 211418Z AUTO 21014G20KT 10SM BKN018 BKN055 23/22 A2973 RMK AO2 T02330217
KAMN 211358Z AUTO 21012G22KT 10SM SCT018 SCT049 SCT070 23/22 A2972 RMK AO2 T02280215
KAMN 211338Z AUTO 21011G26KT 10SM SCT018 SCT049 SCT070 23/22 A2971 RMK AO2 T02280215
KAMN 211318Z AUTO 20011G23KT 10SM SCT110 23/22 A2972 RMK AO2 T02270215
KAMN 211258Z AUTO 20011G20KT 10SM SCT120 23/21 A2973 RMK AO2 T02260212
KAMN 211238Z AUTO 20012G15KT 10SM SCT120 22/21 A2974 RMK AO2 T02230210
KAMN 211218Z AUTO 20007KT 10SM SCT075 SCT120 22/21 A2974 RMK AO2 T02200210
KAMN 211158Z AUTO 21011G16KT 7SM -RA SCT045 BKN060 BKN075 22/21 A2974 RMK AO2 T02180209 10246 20217
KAMN 211137Z AUTO 23014G23KT 7SM +RA BKN045 BKN060 OVC110 23/21 A2975 RMK AO2 T02340207
KAMN 211117Z AUTO 21013G22KT 10SM RA SCT050 SCT070 BKN085 24/20 A2973 RMK AO2 T02420203
KAMN 211057Z AUTO 20013G22KT 10SM SCT070 SCT080 24/20 A2972 RMK AO2 T02420203
KAMN 211037Z AUTO 20013KT 10SM SCT055 24/21 A2972 RMK AO2 T02380205
KAMN 211017Z AUTO 20011G16KT 10SM CLR 24/21 A2973 RMK AO2 T02370206
KAMN 210957Z AUTO 20012G17KT 10SM CLR 24/21 A2975 RMK AO2 T02390207
KAMN 210937Z AUTO 20011KT 10SM CLR 24/21 A2976 RMK AO2 T02360210
KAMN 210917Z AUTO 20010G15KT 10SM CLR 24/21 A2976 RMK AO2 T02350210
KAMN 210857Z AUTO 20008G15KT 10SM CLR 24/21 A2976 RMK AO2 T02350210
KAMN 210836Z AUTO 20010KT 10SM CLR 24/21 A2977 RMK AO2 T02360212
KAMN 210816Z AUTO 20010G15KT 10SM CLR 24/21 A2978 RMK AO2 T02350212
KAMN 210756Z AUTO 20010G15KT 10SM CLR 24/21 A2978 RMK AO2 T02350213
KAMN 210736Z AUTO 20009G15KT 10SM CLR 24/22 A2980 RMK AO2 T02360215
KAMN 210716Z AUTO 20011G17KT 10SM CLR 24/22 A2980 RMK AO2 T02370215
KAMN 210656Z AUTO 20011G15KT 10SM CLR 24/22 A2981 RMK AO2 T02360215
KAMN 210636Z AUTO 20011KT 10SM CLR 24/22 A2981 RMK AO2 T02400215
KAMN 210615Z AUTO 20011KT 10SM CLR 24/21 A2981 RMK AO2 T02400213
KAMN 210555Z AUTO 19013G17KT 10SM CLR 24/21 A2981 RMK AO2 T02400212 10240 20217 402510160
KAMN 210535Z AUTO 19012G18KT 10SM CLR 24/21 A2982 RMK AO2 T02390211
KAMN 210515Z AUTO 19013KT 10SM CLR 24/21 A2983 RMK AO2 T02370210
KAMN 210459Z AUTO 20012KT 10SM CLR 24/21 A2983 RMK AO2 T02350210
KAMN 210435Z AUTO 18011G16KT 10SM CLR 23/21 A2984 RMK AO2 T02280210
KAMN 210415Z AUTO 18011G16KT 10SM CLR 22/21 A2984 RMK AO2 T02230210
KAMN 210355Z AUTO 18011KT 10SM CLR 22/21 A2984 RMK AO2 T02190210
KAMN 210335Z AUTO 18010KT 10SM CLR 22/21 A2985 RMK AO2 T02190210
KAMN 210315Z AUTO 15004KT 10SM CLR 22/21 A2986 RMK AO2 T02200212
KAMN 210259Z AUTO 17006KT 130V200 10SM SCT060 SCT085 22/21 A2986 RMK AO2 T02200213
KAMN 210239Z AUTO 16006KT 10SM BKN060 BKN085 22/22 A2987 RMK AO2 T02220215
KAMN 210219Z AUTO 14005KT 10SM SCT065 BKN070 BKN100 22/22 A2988 RMK AO2 T02240215
KAMN 210159Z AUTO 16007KT 10SM BKN065 BKN070 OVC100 22/22 A2988 RMK AO2 T02220215
KAMN 210139Z AUTO 15005KT 10SM SCT070 BKN080 22/22 A2989 RMK AO2 T02210215
KAMN 210119Z AUTO 13009G15KT 10SM CLR 22/22 A2989 RMK AO2 T02210215
KAMN 210059Z AUTO 12010G15KT 10SM CLR 22/22 A2990 RMK AO2 T02230215
KAMN 210039Z AUTO 11007G15KT 10SM CLR 23/21 A2991 RMK AO2 T02250214
KAMN 210019Z AUTO 11007KT 10SM CLR 23/21 A2991 RMK AO2 T02250213
KAMN 202359Z AUTO 10005KT 10SM CLR 23/21 A2991 RMK AO2 T02270214 10251 20210
KAMN 202338Z AUTO 09003KT 10SM CLR 23/22 A2991 RMK AO2 T02310215
KAMN 202318Z AUTO 12005KT 10SM CLR 24/22 A2992 RMK AO2 T02360215
KAMN 202258Z AUTO 12003KT 10SM CLR 24/22 A2992 RMK AO2 T02400216
KAMN 202238Z AUTO 13005KT 10SM CLR 25/22 A2992 RMK AO2 T02450216
KAMN 202218Z AUTO 14005KT 10SM CLR 25/22 A2993 RMK AO2 T02470215
KAMN 202158Z AUTO 15005KT 10SM SCT019 SCT024 25/22 A2993 RMK AO2 T02470216
KAMN 202138Z AUTO 13005KT 10SM BKN020 25/22 A2994 RMK AO2 T02510219
KAMN 202116Z AUTO 13004KT 10SM OVC018 25/22 A2994 RMK AO2 T02480218
KAMN 202056Z AUTO 13005KT 10SM OVC016 24/22 A2995 RMK AO2 T02410216
KAMN 202036Z AUTO 11003KT 10SM OVC016 24/21 A2995 RMK AO2 T02380214
KAMN 202016Z AUTO 14006G15KT 110V180 10SM BKN016 OVC020 24/21 A2996 RMK AO2 T02400212
KAMN 201956Z AUTO 13006KT 10SM OVC014 25/22 A2997 RMK AO2 T02460216
KAMN 201936Z AUTO 15006KT 110V190 10SM OVC014 24/21 A2998 RMK AO2 T02350212
KAMN 201916Z AUTO 14007G15KT 110V180 10SM OVC014 24/21 A2999 RMK AO2 T02350210
KAMN 201856Z AUTO 17009KT 10SM BKN012 BKN060 23/21 A2999 RMK AO2 T02290205
KAMN 201835Z AUTO 12008KT 100V170 10SM OVC008 22/21 A3001 RMK AO2 T02240206
KAMN 201815Z AUTO 12008KT 10SM OVC006 22/21 A3002 RMK AO2 T02170205
KAMN 201755Z AUTO 17010G14KT 10SM OVC006 21/20 A3002 RMK AO2 T02110201 10212 20160
KAMN 201735Z AUTO 14010KT 120V180 10SM OVC006 21/21 A3003 RMK AO2 T02100205
KAMN 201715Z AUTO 10007KT 10SM OVC004 20/20 A3002 RMK AO2 T02010199
KAMN 201655Z AUTO 14007KT 10SM OVC004 20/20 A3004 RMK AO2 T01950195
KAMN 201635Z AUTO 16008KT 120V180 10SM OVC004 19/19 A3007 RMK AO2 T01920192
KAMN 201615Z AUTO 13007KT 090V170 5SM -RA BKN004 BKN013 OVC050 18/18 A3005 RMK AO2 T01810181
KAMN 201555Z AUTO 09004KT 4SM RA SCT004 BKN023 OVC070 18/18 A3008 RMK AO2 T01760176
KAMN 201535Z AUTO 07004KT 1 1/4SM +RA OVC006 17/17 A3009 RMK AO2 T01740174
KAMN 201515Z AUTO 36005KT 5SM RA OVC006 18/18 A3010 RMK AO2 T01750175
KAMN 201455Z AUTO 05003KT 3SM +RA OVC006 17/17 A3010 RMK AO2 T01740174
KAMN 201439Z AUTO 19003KT 10SM OVC006 17/17 A3009 RMK AO2 T01730173
KAMN 201419Z AUTO 17005KT 10SM OVC006 17/17 A3009 RMK AO2 T01730173
KAMN 201357Z AUTO 17005KT 10SM -RA OVC006 17/17 A3006 RMK AO2 T01670167
KAMN 201337Z AUTO 10005KT 10SM -RA OVC008 17/17 A3007 RMK AO2 T01650165
KAMN 201317Z AUTO 19004KT 10SM -RA OVC010 16/16 A3008 RMK AO2 T01630163
KAMN 201257Z AUTO 23003KT 7SM -RA BKN010 BKN019 OVC034 16/16 A3008 RMK AO2 T01620162
KAMN 201237Z AUTO 17004KT 10SM BKN010 OVC065 16/16 A3009 RMK AO2 T01610161
KAMN 201217Z AUTO 18004KT 10SM OVC012 16/16 A3008 RMK AO2 T01600160
KAMN 201157Z AUTO 25003KT 10SM -RA OVC012 16/16 A3007 RMK AO2 T01600160 10175 20160
KAMN 201137Z AUTO 03006KT 7SM -RA BKN012 BKN075 OVC090 16/16 A3007 RMK AO2 T01600157
KAMN 201116Z AUTO 23003KT 10SM -RA OVC012 16/16 A3008 RMK AO2 T01600156
KAMN 201056Z AUTO 16004KT 10SM -RA OVC012 16/16 A3007 RMK AO2 T01620155
KAMN 201036Z AUTO 18005KT 10SM OVC014 16/16 A3008 RMK AO2 T01640156
KAMN 201016Z AUTO 20004KT 10SM -RA OVC014 17/16 A3008 RMK AO2 T01650155
KAMN 200956Z AUTO 02004KT 10SM OVC014 17/15 A3007 RMK AO2 T01650154
KAMN 200936Z AUTO 12004KT 10SM BKN014 OVC070 17/15 A3007 RMK AO2 T01660152
KAMN 200916Z AUTO 17004KT 10SM OVC014 17/15 A3007 RMK AO2 T01670152
KAMN 200856Z AUTO 06005KT 10SM OVC016 17/15 A3008 RMK AO2 T01680153
KAMN 200836Z AUTO 03005KT 10SM OVC016 17/16 A3008 RMK AO2 T01670155
KAMN 200816Z AUTO 09007KT 10SM OVC016 17/16 A3006 RMK AO2 T01680155
KAMN 200756Z AUTO 06006KT 10SM BKN018 OVC047 17/16 A3007 RMK AO2 T01680156
KAMN 200736Z AUTO 03005KT 10SM SCT020 BKN065 OVC085 17/16 A3008 RMK AO2 T01700159
KAMN 200715Z AUTO 02005KT 10SM SCT065 SCT085 OVC090 17/16 A3008 RMK AO2 T01710160
KAMN 200655Z AUTO 17004KT 10SM BKN075 OVC110 17/16 A3007 RMK AO2 T01730161
KAMN 200638Z AUTO 14004KT 10SM SCT075 SCT090 OVC110 17/16 A3007 RMK AO2 T01730162
KAMN 200618Z AUTO 19005KT 10SM SCT075 BKN090 OVC110 17/16 A3007 RMK AO2 T01730163
KAMN 200558Z AUTO 20003KT 10SM SCT075 BKN090 OVC110 18/16 A3007 RMK AO2 T01750162 10191 20175 402300156
KAMN 200538Z AUTO 15004KT 10SM BKN075 BKN090 OVC110 18/16 A3006 RMK AO2 T01760161
KAMN 200518Z AUTO 18004KT 10SM SCT075 SCT090 OVC110 18/16 A3006 RMK AO2 T01760162
KAMN 200458Z AUTO 14005KT 10SM OVC100 18/16 A3006 RMK AO2 T01770162